Time;durP1;ratioP1;P1;durP2;ratioP2;P2;SDS_P1;SDS_P2;PMS_P1;PMS_P2;Temp;Humidity;BMP_temperature;BMP_pressure;BME280_temperature;BME280_humidity;BME280_pressure;Samples;Min_cycle;Max_cycle;Signal;HPM_P1;HPM_P2
2022/03/30 00:02:11;;;;;;;41.02;23.40;;;;;;;7.78;49.02;96670.62;1780520;81;20983;-83
2022/03/30 00:04:38;;;;;;;40.38;24.25;;;;;;;7.75;49.39;96676.03;1777409;81;21426;-82
2022/03/30 00:07:05;;;;;;;38.28;23.60;;;;;;;7.72;49.97;96673.98;1745101;82;21065;-83
2022/03/30 00:09:35;;;;;;;48.65;26.07;;;;;;;7.68;50.93;96672.38;1778006;79;21044;-82
2022/03/30 00:12:01;;;;;;;44.98;25.68;;;;;;;7.64;49.79;96678.24;1777504;81;20993;-83
2022/03/30 00:14:28;;;;;;;48.85;26.00;;;;;;;7.61;49.77;96675.72;1780753;81;20993;-83
2022/03/30 00:16:54;;;;;;;37.58;23.75;;;;;;;7.58;49.83;96675.38;1780360;81;21370;-83
2022/03/30 00:19:21;;;;;;;41.90;23.65;;;;;;;7.56;49.74;96670.60;1803222;78;20986;-82
2022/03/30 00:21:47;;;;;;;37.78;23.45;;;;;;;7.56;49.66;96668.45;1811406;79;21002;-82
2022/03/30 00:24:14;;;;;;;36.98;23.65;;;;;;;7.53;49.71;96669.42;1809880;79;20998;-83
2022/03/30 00:26:40;;;;;;;36.65;21.70;;;;;;;7.52;49.49;96665.91;1787178;79;21045;-83
2022/03/30 00:29:07;;;;;;;36.63;22.50;;;;;;;7.50;49.77;96676.99;1811254;79;21073;-83
2022/03/30 00:31:34;;;;;;;43.08;22.48;;;;;;;7.49;49.72;96675.28;1791753;79;20997;-83
2022/03/30 00:34:01;;;;;;;34.45;21.35;;;;;;;7.49;49.94;96672.64;1780977;80;21022;-83
2022/03/30 00:36:27;;;;;;;32.67;21.42;;;;;;;7.49;49.77;96671.33;1784808;79;20994;-83
2022/03/30 00:38:54;;;;;;;39.55;19.95;;;;;;;7.48;49.91;96673.53;1797234;80;20950;-83
2022/03/30 00:41:20;;;;;;;38.50;22.15;;;;;;;7.48;49.92;96675.34;1797362;79;21041;-83
2022/03/30 00:43:46;;;;;;;37.53;21.10;;;;;;;7.47;50.00;96674.94;1797320;79;21013;-83
2022/03/30 00:46:13;;;;;;;33.53;20.77;;;;;;;7.48;50.25;96672.22;1797134;79;21471;-83
2022/03/30 00:48:42;;;;;;;36.35;22.65;;;;;;;7.45;50.37;96671.05;1796902;80;21733;-83
2022/03/30 00:51:09;;;;;;;37.03;21.82;;;;;;;7.44;50.84;96679.88;1796990;80;21009;-83
2022/03/30 00:53:36;;;;;;;36.50;22.65;;;;;;;7.44;50.44;96669.33;1796498;80;21077;-83
2022/03/30 00:56:06;;;;;;;42.17;21.60;;;;;;;7.47;51.01;96669.67;1796597;79;21028;-83
2022/03/30 00:58:33;;;;;;;37.35;20.92;;;;;;;7.44;50.70;96658.78;1812115;79;21071;-83
2022/03/30 01:01:00;;;;;;;40.45;22.22;;;;;;;7.42;50.85;96660.60;1811455;79;20995;-82
2022/03/30 01:03:26;;;;;;;39.70;22.13;;;;;;;7.43;50.99;96669.38;1811514;79;21031;-83
2022/03/30 01:05:53;;;;;;;38.08;21.37;;;;;;;7.42;51.10;96657.97;1811362;79;21014;-83
2022/03/30 01:08:19;;;;;;;38.67;21.90;;;;;;;7.38;51.91;96657.23;1796617;79;21514;-83
2022/03/30 01:10:47;;;;;;;42.13;23.05;;;;;;;7.36;52.80;96655.09;1795859;80;21044;-83
2022/03/30 01:13:14;;;;;;;38.38;24.47;;;;;;;7.35;51.21;96652.07;1797232;79;20974;-83
2022/03/30 01:15:41;;;;;;;43.70;25.27;;;;;;;7.37;51.34;96646.74;1797272;79;21013;-83
2022/03/30 01:18:07;;;;;;;40.98;24.57;;;;;;;7.38;51.50;96648.45;1810454;79;21448;-83
2022/03/30 01:20:34;;;;;;;43.90;25.43;;;;;;;7.41;51.47;96643.08;1813001;79;21433;-83
2022/03/30 01:23:02;;;;;;;42.43;24.05;;;;;;;7.44;51.94;96644.29;1813043;79;21027;-83
2022/03/30 01:25:29;;;;;;;36.90;23.10;;;;;;;7.47;52.60;96640.67;1813122;79;21015;-83
2022/03/30 01:27:56;;;;;;;39.70;23.15;;;;;;;7.48;51.57;96643.22;1801041;79;21018;-83
2022/03/30 01:33:08;;;;;;;38.98;24.00;;;;;;;7.49;52.22;96638.82;1797159;80;20993;-83
2022/03/30 01:35:35;;;;;;;40.60;24.20;;;;;;;7.50;51.98;96624.27;1804316;79;21006;-83
2022/03/30 01:38:02;;;;;;;43.83;24.40;;;;;;;7.52;51.55;96623.73;1812966;79;21007;-82
2022/03/30 01:40:29;;;;;;;42.03;22.87;;;;;;;7.54;51.46;96626.31;1812834;79;20980;-83
2022/03/30 01:42:55;;;;;;;44.95;25.70;;;;;;;7.57;51.54;96624.02;1812965;79;21441;-83
2022/03/30 01:45:22;;;;;;;41.08;26.00;;;;;;;7.58;52.59;96621.77;1807367;79;21001;-82
2022/03/30 01:47:57;;;;;;;38.55;23.83;;;;;;;7.59;52.85;96620.84;1797026;80;21041;-82
2022/03/30 01:50:25;;;;;;;;;;;;;;;7.58;51.59;96623.96;1799956;80;21013;-83
2022/03/30 01:52:53;;;;;;;43.13;22.65;;;;;;;7.58;51.32;96621.33;1797192;80;20092;-83
2022/03/30 01:55:20;;;;;;;37.90;23.12;;;;;;;7.59;53.11;96631.39;1802007;79;21026;-82
2022/03/30 01:57:47;;;;;;;40.00;24.87;;;;;;;7.58;53.29;96620.01;1804713;79;20982;-83
2022/03/30 02:00:17;;;;;;;41.63;24.20;;;;;;;7.59;52.12;96628.31;1807828;79;20995;-83
2022/03/30 02:02:44;;;;;;;39.40;22.80;;;;;;;7.59;52.70;96626.13;1809542;79;21015;-83
2022/03/30 02:05:11;;;;;;;40.65;23.52;;;;;;;7.59;51.95;96623.48;1802705;79;21129;-82
2022/03/30 02:07:40;;;;;;;38.42;22.73;;;;;;;7.61;52.78;96623.85;1777288;81;21466;-83
2022/03/30 02:10:09;;;;;;;37.58;22.52;;;;;;;7.63;52.28;96621.12;1777159;81;21009;-83
2022/03/30 02:12:37;;;;;;;37.60;21.82;;;;;;;7.65;52.87;96625.90;1777394;81;21442;-83
2022/03/30 02:15:06;;;;;;;34.63;21.68;;;;;;;7.69;52.58;96628.81;1775982;81;20988;-83
2022/03/30 02:17:33;;;;;;;36.13;21.65;;;;;;;7.72;52.28;96631.31;1775679;81;21448;-83
2022/03/30 02:20:00;;;;;;;32.53;20.60;;;;;;;7.75;52.20;96631.64;1807978;79;21007;-83
2022/03/30 02:22:27;;;;;;;35.08;21.15;;;;;;;7.77;52.60;96625.39;1807773;79;20991;-83
2022/03/30 02:24:53;;;;;;;35.63;21.15;;;;;;;7.81;52.16;96622.64;1807759;79;21036;-83
2022/03/30 02:27:20;;;;;;;32.75;20.88;;;;;;;7.82;51.77;96625.22;1809890;79;21023;-83
2022/03/30 02:29:51;;;;;;;36.42;21.85;;;;;;;7.85;51.64;96629.52;1809751;79;21000;-83
2022/03/30 02:32:18;;;;;;;36.28;21.25;;;;;;;7.86;51.58;96625.50;1807630;79;21050;-83
2022/03/30 02:34:46;;;;;;;38.73;21.20;;;;;;;7.87;51.50;96629.84;1807700;79;21358;-83
2022/03/30 02:37:14;;;;;;;37.20;21.25;;;;;;;7.88;51.80;96629.37;1777891;81;20964;-83
2022/03/30 02:39:41;;;;;;;35.00;20.55;;;;;;;7.89;51.61;96625.35;1775772;81;21067;-83
2022/03/30 02:42:08;;;;;;;34.55;20.23;;;;;;;7.88;51.38;96631.55;1778016;81;20948;-83
2022/03/30 02:44:35;;;;;;;36.05;20.80;;;;;;;7.91;51.21;96626.61;1775612;81;20988;-83
2022/03/30 02:47:03;;;;;;;30.40;20.65;;;;;;;7.91;51.42;96627.48;1778308;79;21379;-83
2022/03/30 02:49:30;;;;;;;33.02;20.30;;;;;;;7.92;51.21;96625.69;1777419;81;21419;-83
2022/03/30 02:51:56;;;;;;;36.05;20.85;;;;;;;7.91;51.10;96624.84;1777301;81;20977;-84
2022/03/30 02:54:24;;;;;;;38.63;21.65;;;;;;;7.92;51.65;96623.05;1774083;81;20990;-84
2022/03/30 02:56:51;;;;;;;32.23;20.40;;;;;;;7.90;51.30;96619.15;1772462;79;20997;-84
2022/03/30 02:59:17;;;;;;;39.98;22.40;;;;;;;7.89;52.19;96629.79;1771525;81;21005;-83
2022/03/30 03:01:44;;;;;;;37.35;22.00;;;;;;;7.83;51.92;96620.34;1771677;81;21013;-83
2022/03/30 03:04:11;;;;;;;33.05;21.60;;;;;;;7.81;52.62;96617.36;1771631;81;21103;-83
2022/03/30 03:06:37;;;;;;;48.87;22.25;;;;;;;7.77;52.23;96621.91;1794776;80;20975;-83
2022/03/30 03:09:04;;;;;;;32.93;20.60;;;;;;;7.73;52.36;96616.36;1787166;79;21461;-83
2022/03/30 03:11:30;;;;;;;32.90;20.62;;;;;;;7.70;53.07;96612.52;1771039;81;21027;-83
2022/03/30 03:13:57;;;;;;;38.53;21.52;;;;;;;7.69;51.99;96609.48;1771612;81;21428;-83
2022/03/30 03:16:23;;;;;;;37.25;20.80;;;;;;;7.69;51.93;96608.17;1772374;79;21026;-83
2022/03/30 03:18:50;;;;;;;33.28;20.92;;;;;;;7.68;52.44;96603.34;1771379;81;21044;-84
2022/03/30 03:21:16;;;;;;;34.83;21.62;;;;;;;7.67;52.10;96602.95;1771661;81;21467;-84
2022/03/30 03:23:42;;;;;;;40.80;21.50;;;;;;;7.67;51.86;96604.27;1771784;81;21033;-83
2022/03/30 03:26:09;;;;;;;40.50;22.58;;;;;;;7.65;52.90;96606.12;1787992;80;20991;-83
2022/03/30 03:28:35;;;;;;;32.45;20.70;;;;;;;7.62;52.39;96605.78;1802169;80;21538;-83
2022/03/30 03:31:02;;;;;;;33.45;21.02;;;;;;;7.60;52.09;96601.50;1802081;80;21008;-82
2022/03/30 03:33:29;;;;;;;34.05;21.15;;;;;;;7.56;52.36;96598.58;1801949;80;21043;-82
2022/03/30 03:35:56;;;;;;;34.63;19.23;;;;;;;7.52;52.26;96601.33;1788739;79;21053;-83
2022/03/30 03:38:23;;;;;;;32.90;19.65;;;;;;;7.49;52.31;96597.52;1794850;80;21004;-83
2022/03/30 03:40:50;;;;;;;31.93;18.70;;;;;;;7.46;52.41;96590.16;1772147;81;21000;-83
2022/03/30 03:43:17;;;;;;;33.65;18.73;;;;;;;7.44;53.13;96598.61;1772139;81;21468;-83
2022/03/30 03:45:43;;;;;;;32.13;19.17;;;;;;;7.41;52.83;96602.22;1779154;79;20998;-83
2022/03/30 03:48:10;;;;;;;35.38;18.05;;;;;;;7.38;52.57;96601.02;1790954;79;21022;-84
2022/03/30 03:50:37;;;;;;;33.85;19.40;;;;;;;7.34;53.09;96602.05;1791014;80;21029;-85
2022/03/30 03:53:03;;;;;;;29.15;18.07;;;;;;;7.30;55.57;96607.06;1790845;80;21458;-84
2022/03/30 03:55:33;;;;;;;31.40;17.57;;;;;;;7.25;54.85;96605.91;1794324;79;21002;-83
2022/03/30 03:57:58;;;;;;;30.50;17.60;;;;;;;7.29;55.05;96612.78;1796624;80;21016;-83
2022/03/30 04:00:24;;;;;;;32.48;18.30;;;;;;;7.34;53.68;96615.22;1796729;80;21065;-84
2022/03/30 04:02:51;;;;;;;32.40;18.57;;;;;;;7.37;53.61;96620.39;1797012;79;20981;-83
2022/03/30 04:05:17;;;;;;;28.98;18.37;;;;;;;7.38;53.46;96611.11;1798257;79;21080;-83
2022/03/30 04:07:43;;;;;;;29.98;18.25;;;;;;;7.39;54.07;96623.36;1809534;79;21015;-83
2022/03/30 04:10:11;;;;;;;32.30;18.20;;;;;;;7.38;53.77;96620.78;1809678;79;21008;-83
2022/03/30 04:12:39;;;;;;;28.80;17.45;;;;;;;7.42;53.32;96619.75;1809789;79;20974;-83
2022/03/30 04:15:09;;;;;;;30.25;18.23;;;;;;;7.44;53.80;96627.16;1809067;79;21078;-84
2022/03/30 04:17:44;;;;;;;30.08;17.67;;;;;;;7.46;54.55;96620.48;1809679;79;21436;-82
2022/03/30 04:20:13;;;;;;;38.10;20.97;;;;;;;7.47;54.40;96627.49;1809694;79;21031;-83
2022/03/30 04:22:41;;;;;;;34.98;18.90;;;;;;;7.45;53.75;96632.81;1809641;79;21430;-83
2022/03/30 04:25:09;;;;;;;34.58;20.77;;;;;;;7.46;54.16;96630.58;1809090;79;21023;-83
2022/03/30 04:27:35;;;;;;;33.25;20.20;;;;;;;7.44;54.48;96626.28;1796750;80;21008;-83
2022/03/30 04:30:03;;;;;;;39.95;21.27;;;;;;;7.45;54.09;96627.99;1796601;80;21017;-83
2022/03/30 04:32:29;;;;;;;36.10;20.90;;;;;;;7.45;53.49;96618.77;1796691;80;21399;-84
2022/03/30 04:34:56;;;;;;;36.45;21.00;;;;;;;7.46;54.57;96623.11;1796799;80;21014;-83
2022/03/30 04:37:22;;;;;;;33.83;21.07;;;;;;;7.49;53.76;96618.60;1808811;79;20972;-83
2022/03/30 04:39:49;;;;;;;43.52;21.60;;;;;;;7.51;53.99;96622.02;1809659;79;20960;-83
2022/03/30 04:42:15;;;;;;;36.35;23.25;;;;;;;7.53;54.30;96616.70;1809036;79;20991;-83
2022/03/30 04:44:42;;;;;;;34.92;20.72;;;;;;;7.57;53.70;96625.34;1802524;79;20986;-83
2022/03/30 04:47:08;;;;;;;37.63;22.55;;;;;;;7.59;54.01;96624.36;1799773;79;21444;-83
2022/03/30 04:49:35;;;;;;;39.65;22.25;;;;;;;7.63;53.11;96626.40;1809607;79;21017;-83
2022/03/30 04:52:02;;;;;;;37.08;21.62;;;;;;;7.67;53.08;96631.95;1809792;79;20956;-83
2022/03/30 04:54:29;;;;;;;38.58;21.73;;;;;;;7.69;53.08;96628.81;1805639;79;21473;-83
2022/03/30 04:56:55;;;;;;;33.80;20.95;;;;;;;7.73;53.17;96629.55;1799070;79;21003;-83
2022/03/30 04:59:22;;;;;;;37.17;21.10;;;;;;;7.77;53.26;96628.50;1799393;80;20991;-83
2022/03/30 05:01:48;;;;;;;39.92;21.30;;;;;;;7.81;52.96;96633.19;1799379;80;20999;-83
2022/03/30 05:04:15;;;;;;;41.25;19.90;;;;;;;7.83;53.75;96631.33;1789628;80;21014;-83
2022/03/30 05:06:41;;;;;;;34.33;20.75;;;;;;;7.87;53.25;96628.53;1767870;81;20977;-83
2022/03/30 05:09:08;;;;;;;38.70;20.72;;;;;;;7.93;52.85;96633.99;1767676;81;21431;-84
2022/03/30 05:11:34;;;;;;;38.78;20.95;;;;;;;7.97;54.25;96621.08;1767532;81;21081;-83
2022/03/30 05:14:01;;;;;;;40.67;21.50;;;;;;;8.00;53.82;96629.33;1773470;80;21019;-84
2022/03/30 05:16:28;;;;;;;45.92;21.93;;;;;;;8.04;53.00;96621.69;1799375;79;20968;-83
2022/03/30 05:18:54;;;;;;;37.58;22.75;;;;;;;8.09;53.01;96626.79;1799095;79;20984;-83
2022/03/30 05:21:20;;;;;;;36.40;22.30;;;;;;;8.13;52.98;96621.75;1799356;80;21010;-83
2022/03/30 05:23:48;;;;;;;39.25;21.12;;;;;;;8.20;52.67;96624.55;1796522;79;21374;-83
2022/03/30 05:26:15;;;;;;;43.28;22.48;;;;;;;8.25;53.00;96624.34;1767615;81;21034;-83
2022/03/30 05:28:42;;;;;;;39.13;21.33;;;;;;;8.30;52.65;96623.23;1767783;81;21077;-83
2022/03/30 05:31:09;;;;;;;40.23;23.20;;;;;;;8.35;53.07;96621.70;1777181;80;21441;-83
2022/03/30 05:33:36;;;;;;;41.48;22.22;;;;;;;8.39;52.49;96618.01;1798831;80;20999;-83
2022/03/30 05:36:04;;;;;;;46.98;23.57;;;;;;;8.47;52.44;96618.16;1767974;81;20961;-83
2022/03/30 05:38:31;;;;;;;41.90;23.32;;;;;;;8.53;52.23;96617.47;1767790;81;21043;-83
2022/03/30 05:40:57;;;;;;;40.08;23.42;;;;;;;8.62;52.00;96622.80;1767904;80;20952;-84
2022/03/30 05:43:25;;;;;;;38.00;22.05;;;;;;;8.70;51.80;96619.36;1767932;80;21028;-84
2022/03/30 05:45:52;;;;;;;44.90;23.90;;;;;;;8.78;51.71;96622.98;1768368;80;21418;-84
2022/03/30 05:48:18;;;;;;;53.68;25.80;;;;;;;8.87;51.63;96617.74;1767741;81;20954;-84
2022/03/30 05:50:45;;;;;;;52.15;26.52;;;;;;;8.95;51.55;96621.36;1772401;80;21039;-84
2022/03/30 05:53:17;;;;;;;46.98;24.43;;;;;;;9.03;51.74;96615.27;1776670;80;21010;-83
2022/03/30 05:55:46;;;;;;;50.12;26.10;;;;;;;9.12;51.75;96619.27;1787932;80;21008;-84
2022/03/30 05:58:14;;;;;;;48.55;24.57;;;;;;;9.19;51.89;96622.03;1793931;80;21072;-83
2022/03/30 06:00:43;;;;;;;43.98;22.25;;;;;;;9.28;51.74;96620.74;1793949;80;21012;-84
2022/03/30 06:03:13;;;;;;;40.98;22.73;;;;;;;9.36;51.50;96633.60;1795612;79;21005;-84
2022/03/30 06:05:40;;;;;;;42.65;24.00;;;;;;;9.43;51.94;96632.37;1796716;80;20993;-84
2022/03/30 06:08:07;;;;;;;42.48;22.77;;;;;;;9.49;53.19;96635.20;1796486;80;21049;-83
2022/03/30 06:10:34;;;;;;;38.15;22.60;;;;;;;9.57;52.44;96638.35;1792989;79;20963;-83
2022/03/30 06:13:02;;;;;;;39.48;22.40;;;;;;;9.67;51.97;96632.63;1800661;79;20982;-82
2022/03/30 06:15:30;;;;;;;39.38;23.25;;;;;;;9.77;51.32;96637.86;1807303;79;21029;-85
2022/03/30 06:17:57;;;;;;;45.08;22.50;;;;;;;9.87;50.86;96646.20;1797079;79;21011;-83
2022/03/30 06:20:24;;;;;;;44.40;22.02;;;;;;;9.96;50.05;96644.43;1798868;78;21455;-84
2022/03/30 06:22:52;;;;;;;45.10;23.77;;;;;;;10.03;49.78;96639.70;1798912;79;21043;-83
2022/03/30 06:25:24;;;;;;;42.43;22.27;;;;;;;10.09;49.95;96646.00;1782227;79;21473;-83
2022/03/30 06:27:54;;;;;;;45.63;22.95;;;;;;;10.14;49.75;96647.95;1785668;79;21026;-82
2022/03/30 06:30:21;;;;;;;45.28;23.27;;;;;;;10.20;49.74;96649.45;1795146;79;21027;-82
2022/03/30 06:32:49;;;;;;;35.88;21.20;;;;;;;10.26;49.72;96654.43;1788885;79;21021;-83
2022/03/30 06:35:20;;;;;;;37.30;20.90;;;;;;;10.34;49.41;96657.17;1802453;79;21003;-82
2022/03/30 06:37:48;;;;;;;38.60;21.97;;;;;;;10.43;49.25;96653.61;1799594;79;20980;-82
2022/03/30 06:40:17;;;;;;;41.95;22.58;;;;;;;10.54;48.68;96650.42;1799920;79;20968;-81
2022/03/30 06:42:44;;;;;;;43.65;23.18;;;;;;;10.67;48.57;96655.11;1796081;79;20989;-82
2022/03/30 06:45:12;;;;;;;38.13;22.07;;;;;;;10.81;48.62;96649.08;1801253;79;21003;-82
2022/03/30 06:47:39;;;;;;;45.65;23.25;;;;;;;10.94;48.50;96640.88;1801306;79;20987;-83
2022/03/30 06:50:08;;;;;;;43.85;21.12;;;;;;;11.09;48.22;96639.19;1798927;79;21043;-82
2022/03/30 06:52:35;;;;;;;28.67;16.65;;;;;;;11.30;46.79;96641.61;1802375;79;20979;-82
2022/03/30 06:55:05;;;;;;;31.73;18.42;;;;;;;11.58;43.53;96639.23;1792634;79;21055;-83
2022/03/30 06:57:31;;;;;;;50.88;22.55;;;;;;;11.80;44.42;96642.91;1792772;79;21398;-82
2022/03/30 06:59:58;;;;;;;56.53;29.45;;;;;;;11.97;45.19;96645.06;1790606;79;20996;-82
2022/03/30 07:02:25;;;;;;;48.28;20.43;;;;;;;12.07;45.23;96648.06;1730758;82;21004;-82
2022/03/30 07:04:52;;;;;;;36.13;20.77;;;;;;;12.16;44.47;96651.52;1730737;82;21409;-82
2022/03/30 07:10:16;;;;;;;37.40;21.05;;;;;;;12.37;44.16;96644.10;1763424;81;20971;-83
2022/03/30 07:12:46;;;;;;;58.05;27.35;;;;;;;12.53;42.92;96640.08;1760593;81;21069;-82
2022/03/30 07:15:15;;;;;;;66.10;33.10;;;;;;;12.72;40.62;96642.97;1784155;80;20988;-82
2022/03/30 07:17:51;;;;;;;58.68;28.15;;;;;;;12.88;42.07;96641.55;1786099;79;21011;-76
2022/03/30 07:20:21;;;;;;;29.85;15.70;;;;;;;13.09;40.78;96631.02;1785305;80;20961;-76
2022/03/30 07:22:49;;;;;;;43.65;21.05;;;;;;;13.32;37.27;96636.23;1783457;80;21443;-77
2022/03/30 07:25:18;;;;;;;27.10;14.58;;;;;;;13.50;38.56;96632.95;1781574;79;21445;-76
2022/03/30 07:27:49;;;;;;;32.05;17.80;;;;;;;13.71;36.28;96633.84;1783719;80;21027;-76
2022/03/30 07:30:17;;;;;;;31.02;16.45;;;;;;;13.90;35.65;96631.33;1785787;80;21026;-76
2022/03/30 07:32:47;;;;;;;32.05;17.10;;;;;;;14.07;37.57;96635.06;1782487;80;20964;-76
2022/03/30 07:35:17;;;;;;;32.38;18.07;;;;;;;14.24;36.01;96628.62;1777479;79;21020;-75
2022/03/30 07:37:45;;;;;;;26.55;16.57;;;;;;;14.41;35.38;96627.95;1773700;80;20941;-76
2022/03/30 07:40:16;;;;;;;24.63;13.98;;;;;;;14.55;32.76;96623.51;1787659;79;21008;-76
2022/03/30 07:42:45;;;;;;;19.75;12.53;;;;;;;14.70;32.70;96627.79;1788788;80;20952;-76
2022/03/30 07:45:12;;;;;;;20.72;13.88;;;;;;;14.83;32.10;96632.33;1782315;80;21033;-75
2022/03/30 07:47:39;;;;;;;39.85;20.05;;;;;;;14.95;33.64;96631.96;1766379;80;20982;-75
2022/03/30 07:50:08;;;;;;;25.25;14.20;;;;;;;15.03;32.05;96630.95;1767584;80;21024;-75
2022/03/30 07:52:34;;;;;;;29.57;16.42;;;;;;;15.16;31.93;96627.78;1771643;80;21023;-75
2022/03/30 07:55:01;;;;;;;22.52;14.15;;;;;;;15.30;31.61;96631.30;1778037;79;21050;-76
2022/03/30 07:57:28;;;;;;;22.60;13.38;;;;;;;15.38;31.97;96627.61;1784412;80;20992;-75
2022/03/30 07:59:58;;;;;;;16.45;11.60;;;;;;;15.49;32.23;96624.16;1787914;80;21075;-75
2022/03/30 08:02:27;;;;;;;20.52;12.45;;;;;;;15.60;32.19;96632.73;1779115;80;20928;-75
2022/03/30 08:04:55;;;;;;;21.70;13.22;;;;;;;15.71;31.75;96620.78;1765755;80;21019;-74
2022/03/30 08:07:22;;;;;;;19.77;12.73;;;;;;;15.83;30.15;96632.39;1777751;79;21004;-75
2022/03/30 08:09:49;;;;;;;18.05;12.63;;;;;;;15.88;29.23;96628.53;1774121;80;21403;-75
2022/03/30 08:12:16;;;;;;;21.80;13.35;;;;;;;15.89;30.59;96631.10;1769429;80;20959;-75
2022/03/30 08:14:43;;;;;;;16.93;12.60;;;;;;;15.88;29.35;96627.20;1775167;81;20992;-75
2022/03/30 08:17:11;;;;;;;22.98;14.85;;;;;;;15.78;29.37;96621.19;1770168;81;20957;-75
2022/03/30 08:19:39;;;;;;;21.77;13.72;;;;;;;15.84;31.15;96622.58;1775344;80;21743;-75
2022/03/30 08:33:05;;;;;;;25.02;14.13;;;;;;;15.76;30.33;96618.27;1600401;88;21153;-82
2022/03/30 08:39:11;;;;;;;22.30;14.03;;;;;;;15.81;30.82;96622.78;1502305;95;21084;-75
2022/03/30 08:41:34;;;;;;;20.50;14.05;;;;;;;15.77;29.67;96618.63;1556375;91;21094;-82
2022/03/30 08:44:00;;;;;;;20.27;14.70;;;;;;;15.74;29.85;96614.86;1570618;85;21033;-82
2022/03/30 08:46:27;;;;;;;25.40;15.28;;;;;;;15.76;30.53;96612.92;1787699;80;21025;-82
2022/03/30 08:48:53;;;;;;;20.90;14.75;;;;;;;15.81;31.22;96611.63;1796442;80;20973;-82
2022/03/30 08:51:21;;;;;;;29.72;15.80;;;;;;;15.82;31.42;96607.16;1796504;80;21033;-82
2022/03/30 08:53:49;;;;;;;23.80;15.28;;;;;;;15.85;31.80;96600.23;1796708;80;21415;-83
2022/03/30 08:56:17;;;;;;;24.98;15.18;;;;;;;15.93;31.28;96600.56;1804249;79;21061;-83
2022/03/30 08:58:43;;;;;;;23.00;15.23;;;;;;;15.99;31.21;96593.91;1777789;81;20976;-83
2022/03/30 09:01:14;;;;;;;23.35;14.65;;;;;;;16.06;31.05;96590.28;1777927;81;20983;-82
2022/03/30 09:04:01;;;;;;;22.73;13.90;;;;;;;16.14;30.68;96593.23;1777700;81;21015;-82
2022/03/30 09:06:38;;;;;;;24.65;15.32;;;;;;;16.20;29.81;96591.94;1779708;79;21043;-82
2022/03/30 09:09:06;;;;;;;20.72;13.95;;;;;;;16.23;28.83;96598.37;1796609;80;20974;-82
2022/03/30 09:11:53;;;;;;;23.73;14.15;;;;;;;16.21;28.90;96594.50;1796496;79;21451;-82
2022/03/30 09:14:14;;;;;;;23.10;13.75;;;;;;;16.21;28.96;96598.98;1795736;80;21054;-81
2022/03/30 09:16:49;;;;;;;20.70;14.07;;;;;;;16.29;29.72;96591.72;1807189;79;21060;-82
2022/03/30 09:19:18;;;;;;;24.63;13.48;;;;;;;16.35;29.94;96588.09;1809586;79;21547;-82
2022/03/30 09:21:52;;;;;;;21.93;14.98;;;;;;;16.47;29.67;96580.97;1808950;79;21012;-82
2022/03/30 09:24:24;;;;;;;22.17;15.18;;;;;;;16.62;28.86;96583.44;1801880;78;21007;-82
2022/03/30 09:26:52;;;;;;;23.30;14.73;;;;;;;16.70;27.78;96580.16;1774746;81;20990;-81
2022/03/30 09:29:24;;;;;;;21.87;14.65;;;;;;;16.78;28.74;96575.55;1746643;80;20971;-82
2022/03/30 09:31:52;;;;;;;21.77;15.32;;;;;;;16.85;29.00;96572.75;1764572;81;21039;-82
2022/03/30 09:34:20;;;;;;;22.58;15.38;;;;;;;17.01;28.54;96573.75;1746398;81;21406;-82
2022/03/30 09:36:54;;;;;;;27.75;16.23;;;;;;;17.15;26.75;96570.86;1798234;79;21425;-81
2022/03/30 09:39:35;;;;;;;20.95;13.30;;;;;;;17.20;27.63;96564.30;1799184;79;21007;-81
2022/03/30 09:44:55;;;;;;;19.55;12.88;;;;;;;17.42;26.89;96552.70;1710516;84;21489;-82
2022/03/30 09:47:25;;;;;;;21.33;13.53;;;;;;;17.58;27.06;96548.30;1710468;84;21079;-82
2022/03/30 09:49:57;;;;;;;22.17;13.10;;;;;;;17.68;27.11;96533.66;1681981;83;21365;-82
2022/03/30 09:52:28;;;;;;;17.70;11.65;;;;;;;17.83;27.74;96532.03;1721402;83;21048;-82
2022/03/30 09:55:01;;;;;;;16.35;10.63;;;;;;;17.89;23.92;96532.37;1719545;83;21389;-81
2022/03/30 09:57:39;;;;;;;15.58;11.12;;;;;;;17.86;24.06;96523.23;1724312;83;20996;-82
2022/03/30 10:00:15;;;;;;;18.42;10.25;;;;;;;17.98;24.41;96518.69;1720874;83;21133;-82
2022/03/30 10:02:51;;;;;;;14.58;10.20;;;;;;;18.01;23.43;96527.82;1724831;83;20968;-82
2022/03/30 10:05:21;;;;;;;14.05;9.53;;;;;;;17.96;22.50;96532.72;1721161;83;21003;-82
2022/03/30 10:07:49;;;;;;;18.25;10.15;;;;;;;17.99;23.11;96524.43;1720340;82;21390;-82
2022/03/30 10:10:22;;;;;;;15.55;10.15;;;;;;;18.02;22.71;96530.86;1725795;82;20999;-83
2022/03/30 10:12:49;;;;;;;20.35;9.88;;;;;;;18.04;22.09;96524.03;1723667;82;21027;-83
2022/03/30 10:15:15;;;;;;;20.65;10.90;;;;;;;18.15;23.37;96512.45;1726878;82;20967;-83
2022/03/30 10:17:43;;;;;;;20.27;11.12;;;;;;;18.31;22.08;96514.17;1731087;82;21000;-82
2022/03/30 10:20:10;;;;;;;24.25;15.00;;;;;;;18.51;22.18;96514.30;1731450;82;21022;-81
2022/03/30 10:23:01;;;;;;;17.00;10.93;;;;;;;18.67;22.51;96516.52;1685350;84;20988;-82
2022/03/30 10:26:11;;;;;;;17.75;9.50;;;;;;;18.72;21.62;96510.25;1709474;83;21077;-82
2022/03/30 10:28:52;;;;;;;23.90;9.35;;;;;;;18.86;22.12;96504.19;1692151;84;21494;-84
2022/03/30 10:31:22;;;;;;;15.45;8.88;;;;;;;18.76;21.42;96512.17;1693383;84;21468;-83
2022/03/30 10:33:49;;;;;;;13.10;7.85;;;;;;;18.84;22.09;96521.76;1701658;83;21496;-84
2022/03/30 10:36:34;;;;;;;21.35;8.80;;;;;;;18.73;21.58;96520.52;1709753;83;20984;-84
2022/03/30 10:39:23;;;;;;;18.12;9.55;;;;;;;18.84;21.77;96515.53;1705852;83;21148;-83
2022/03/30 10:41:50;;;;;;;15.08;7.80;;;;;;;18.99;21.61;96518.72;1706591;83;21473;-85
2022/03/30 10:44:46;;;;;;;21.87;10.95;;;;;;;19.08;21.08;96519.77;1691609;84;21426;-84
2022/03/30 10:47:22;;;;;;;26.93;11.73;;;;;;;19.49;21.43;96523.30;1710268;82;21012;-84
2022/03/30 10:50:00;;;;;;;31.97;16.32;;;;;;;19.83;20.60;96518.52;1722810;82;21039;-84
2022/03/30 10:52:44;;;;;;;13.25;8.30;;;;;;;20.06;20.10;96503.02;1719459;82;21047;-82
2022/03/30 10:55:19;;;;;;;;;;;;;;;20.38;18.98;96537.33;1721303;82;21028;-83
2022/03/30 10:57:57;;;;;;;16.50;10.28;;;;;;;20.54;19.05;96513.84;1718108;83;20128;-82
2022/03/30 11:00:27;;;;;;;16.95;8.20;;;;;;;21.21;19.08;96509.75;1721391;82;21047;-82
2022/03/30 11:03:13;;;;;;;14.45;8.15;;;;;;;21.89;18.82;96500.91;1717011;82;21028;-81
2022/03/30 11:05:49;;;;;;;12.13;8.50;;;;;;;21.67;17.75;96522.92;1681556;83;21511;-80
2022/03/30 11:08:36;;;;;;;20.72;10.85;;;;;;;21.76;18.85;96503.17;1716425;83;21035;-81
2022/03/30 11:11:25;;;;;;;17.37;7.95;;;;;;;21.70;18.96;96508.63;1717030;82;21052;-81
2022/03/30 11:14:44;;;;;;;18.05;8.03;;;;;;;21.34;18.47;96520.18;1714729;83;21114;-81
2022/03/30 11:17:15;;;;;;;14.25;7.65;;;;;;;20.98;18.72;96505.25;1708680;82;21406;-81
2022/03/30 11:19:57;;;;;;;11.03;7.00;;;;;;;20.81;18.70;96524.34;1720966;83;21063;-81
2022/03/30 11:22:36;;;;;;;15.58;6.92;;;;;;;20.49;18.46;96514.29;1703084;82;20976;-80
2022/03/30 11:25:18;;;;;;;24.95;10.75;;;;;;;20.23;19.22;96524.80;1686640;85;21599;-81
2022/03/30 11:27:45;;;;;;;12.73;7.67;;;;;;;19.86;19.92;96515.56;1681197;85;21457;-83
2022/03/30 11:30:17;;;;;;;15.90;8.53;;;;;;;19.50;20.67;96527.68;1653246;87;21466;-82
2022/03/30 11:32:54;;;;;;;26.00;10.03;;;;;;;19.29;21.11;96520.18;1683973;85;21047;-82
2022/03/30 11:35:25;;;;;;;22.20;9.85;;;;;;;19.38;21.33;96528.77;1710665;84;21071;-82
2022/03/30 11:38:15;;;;;;;20.23;7.60;;;;;;;19.24;21.58;96516.09;1720304;83;21048;-82
2022/03/30 11:40:45;;;;;;;15.25;8.80;;;;;;;18.97;21.44;96522.88;1720382;83;21469;-82
2022/03/30 11:43:13;;;;;;;11.93;8.63;;;;;;;18.98;21.54;96519.70;1693379;83;21016;-82
2022/03/30 11:45:40;;;;;;;30.72;16.12;;;;;;;19.02;21.71;96517.12;1683189;85;21075;-82
2022/03/30 11:48:12;;;;;;;29.20;13.68;;;;;;;18.97;22.04;96517.98;1683342;85;21465;-82
2022/03/30 11:50:46;;;;;;;17.73;8.35;;;;;;;18.81;22.09;96538.63;1683099;85;21051;-82
2022/03/30 11:53:20;;;;;;;16.85;8.75;;;;;;;18.70;22.36;96520.28;1703672;83;21093;-82
2022/03/30 11:55:54;;;;;;;16.62;8.95;;;;;;;18.71;22.66;96519.30;1726313;83;21025;-82